createdAt,value
2023-03-26T00:00:21.060Z,11.76
2023-03-26T00:02:47.418Z,11.77
2023-03-26T00:05:14.039Z,11.83
2023-03-26T00:07:40.418Z,11.72
2023-03-26T00:10:06.741Z,11.65
2023-03-26T00:12:33.100Z,11.60
2023-03-26T00:14:59.406Z,11.59
2023-03-26T00:17:25.873Z,11.56
2023-03-26T00:19:52.199Z,11.61
2023-03-26T00:22:18.542Z,11.63
2023-03-26T00:24:44.877Z,11.66
2023-03-26T00:27:11.244Z,11.61
2023-03-26T00:29:37.584Z,11.72
2023-03-26T00:32:04.379Z,11.68
2023-03-26T00:34:30.749Z,11.57
2023-03-26T00:36:57.155Z,11.55
2023-03-26T00:39:23.586Z,11.54
2023-03-26T00:41:49.936Z,11.47
2023-03-26T00:44:16.270Z,11.47
2023-03-26T00:46:42.710Z,11.45
2023-03-26T00:49:09.001Z,11.45
2023-03-26T00:51:35.364Z,11.43
2023-03-26T00:54:01.755Z,11.39
2023-03-26T00:56:28.120Z,11.43
2023-03-26T00:58:54.505Z,11.39
2023-03-26T01:01:20.915Z,11.37
2023-03-26T01:04:01.242Z,11.32
2023-03-26T01:06:13.614Z,11.29
2023-03-26T01:08:39.983Z,11.30
2023-03-26T01:11:06.387Z,11.28
2023-03-26T01:13:32.779Z,11.27
2023-03-26T01:15:59.226Z,11.29
2023-03-26T01:18:25.483Z,11.29
2023-03-26T01:20:51.874Z,11.29
2023-03-26T01:23:18.277Z,11.24
2023-03-26T01:25:44.658Z,11.25
2023-03-26T01:28:10.979Z,11.24
2023-03-26T01:30:37.351Z,11.23
2023-03-26T01:33:03.808Z,11.22
2023-03-26T01:35:30.116Z,11.21
2023-03-26T01:37:56.490Z,11.19
2023-03-26T01:40:22.860Z,11.08
2023-03-26T01:42:49.291Z,11.03
2023-03-26T01:45:15.647Z,11.00
2023-03-26T01:47:42.087Z,11.00
2023-03-26T01:50:08.395Z,10.99
2023-03-26T01:52:34.730Z,11.00
2023-03-26T01:55:01.101Z,10.99
2023-03-26T01:57:27.491Z,11.02
2023-03-26T01:59:53.841Z,11.02
2023-03-26T02:02:20.310Z,11.01
2023-03-26T02:04:46.517Z,10.98
2023-03-26T02:07:12.925Z,10.91
2023-03-26T02:09:39.257Z,10.86
2023-03-26T02:12:05.648Z,10.86
2023-03-26T02:14:32.056Z,10.83
2023-03-26T02:16:58.425Z,10.82
2023-03-26T02:19:24.830Z,10.81
2023-03-26T02:21:51.199Z,10.74
2023-03-26T02:24:17.548Z,10.68
2023-03-26T02:26:43.888Z,10.60
2023-03-26T02:29:10.208Z,10.59
2023-03-26T02:31:36.663Z,10.61
2023-03-26T02:34:02.964Z,10.63
2023-03-26T02:36:29.509Z,10.67
2023-03-26T02:38:55.729Z,10.67
2023-03-26T02:41:22.080Z,10.67
2023-03-26T02:43:48.453Z,10.65
2023-03-26T02:46:14.871Z,10.59
2023-03-26T02:48:41.197Z,10.55
2023-03-26T02:51:07.547Z,10.57
2023-03-26T02:53:33.929Z,10.55
2023-03-26T02:56:00.337Z,10.53
2023-03-26T02:58:26.686Z,10.59
2023-03-26T03:00:53.078Z,10.56
2023-03-26T03:03:19.439Z,10.50
2023-03-26T03:05:45.746Z,10.44
2023-03-26T03:08:12.111Z,10.41
2023-03-26T03:10:38.508Z,10.38
2023-03-26T03:13:04.824Z,10.34
2023-03-26T03:15:31.182Z,10.27
2023-03-26T03:17:57.580Z,10.19
2023-03-26T03:20:23.987Z,10.11
2023-03-26T03:22:50.298Z,10.11
2023-03-26T03:25:16.709Z,10.08
2023-03-26T03:27:43.120Z,10.02
2023-03-26T03:30:09.413Z,9.99
2023-03-26T03:32:35.751Z,9.93
2023-03-26T03:35:02.133Z,9.93
2023-03-26T03:37:28.490Z,9.95
2023-03-26T03:39:54.845Z,9.98
2023-03-26T03:42:21.160Z,9.96
2023-03-26T03:44:47.620Z,9.95
2023-03-26T03:47:13.982Z,9.97
2023-03-26T03:49:40.287Z,9.96
2023-03-26T03:52:06.688Z,9.95
2023-03-26T03:54:33.028Z,9.96
2023-03-26T03:56:59.410Z,9.97
2023-03-26T03:59:25.743Z,9.98
2023-03-26T04:01:52.103Z,9.94
2023-03-26T04:04:18.470Z,9.93
2023-03-26T04:06:44.856Z,9.91
2023-03-26T04:09:11.240Z,9.89
2023-03-26T04:11:37.592Z,9.87
2023-03-26T04:14:03.988Z,9.90
2023-03-26T04:16:30.454Z,9.89
2023-03-26T04:18:56.759Z,9.90
2023-03-26T04:21:23.104Z,9.96
2023-03-26T04:23:49.530Z,9.99
2023-03-26T04:26:15.987Z,10.04
2023-03-26T04:28:42.373Z,10.03
2023-03-26T04:31:08.619Z,10.03
2023-03-26T04:33:34.973Z,10.08
2023-03-26T04:36:01.289Z,10.09
2023-03-26T04:38:27.620Z,10.05
2023-03-26T04:40:53.981Z,10.08
2023-03-26T04:43:20.383Z,10.13
2023-03-26T04:45:46.710Z,10.11
2023-03-26T04:48:13.130Z,10.21
2023-03-26T04:50:39.488Z,10.28
2023-03-26T04:53:05.880Z,10.27
2023-03-26T04:55:32.262Z,10.24
2023-03-26T04:57:58.599Z,10.30
2023-03-26T05:00:24.981Z,10.37
2023-03-26T05:02:51.364Z,10.50
2023-03-26T05:05:17.686Z,10.67
2023-03-26T05:07:44.026Z,10.75
2023-03-26T05:10:10.423Z,10.88
2023-03-26T05:12:36.809Z,11.48
2023-03-26T05:15:03.138Z,11.94
2023-03-26T05:17:29.797Z,11.97
2023-03-26T05:19:56.160Z,11.99
2023-03-26T05:22:22.536Z,11.93
2023-03-26T05:24:48.876Z,11.85
2023-03-26T05:27:15.280Z,11.99
2023-03-26T05:29:41.679Z,11.75
2023-03-26T05:32:08.046Z,11.41
2023-03-26T05:34:34.430Z,11.06
2023-03-26T05:37:00.848Z,10.79
2023-03-26T05:39:27.170Z,10.66
2023-03-26T05:41:53.586Z,10.59
2023-03-26T05:44:19.951Z,10.54
2023-03-26T05:46:46.357Z,10.45
2023-03-26T05:49:12.692Z,10.44
2023-03-26T05:51:39.096Z,10.45
2023-03-26T05:54:05.506Z,10.51
2023-03-26T05:56:31.827Z,10.51
2023-03-26T05:58:58.122Z,10.57
2023-03-26T06:01:24.509Z,10.64
2023-03-26T06:03:51.062Z,10.89
2023-03-26T06:06:17.374Z,11.28
2023-03-26T06:08:43.756Z,11.89
2023-03-26T06:11:10.139Z,12.11
2023-03-26T06:13:36.731Z,12.60
2023-03-26T06:16:03.197Z,13.12
2023-03-26T06:18:29.430Z,13.74
2023-03-26T06:20:56.031Z,14.15
2023-03-26T06:23:22.239Z,14.37
2023-03-26T06:25:48.699Z,14.39
2023-03-26T06:28:15.294Z,14.61
2023-03-26T06:30:41.670Z,14.79
2023-03-26T06:33:07.997Z,14.34
2023-03-26T06:35:34.391Z,14.34
2023-03-26T06:38:00.722Z,14.88
2023-03-26T06:40:27.169Z,15.28
2023-03-26T06:43:07.990Z,15.39
2023-03-26T06:45:19.864Z,15.03
2023-03-26T06:47:46.313Z,15.35
2023-03-26T06:50:12.660Z,15.59
2023-03-26T06:52:39.016Z,15.75
2023-03-26T06:55:05.405Z,15.39
2023-03-26T06:57:31.757Z,15.76
2023-03-26T06:59:58.124Z,15.78
2023-03-26T07:02:24.585Z,15.40
2023-03-26T07:04:50.905Z,15.65
2023-03-26T07:07:17.221Z,15.80
2023-03-26T07:09:43.644Z,15.79
2023-03-26T07:12:10.014Z,15.58
2023-03-26T07:14:36.394Z,16.08
2023-03-26T07:17:02.726Z,16.44
2023-03-26T07:19:29.090Z,16.29
2023-03-26T07:21:55.589Z,16.32
2023-03-26T07:24:22.035Z,16.44
2023-03-26T07:26:48.411Z,16.94
2023-03-26T07:29:14.765Z,16.45
2023-03-26T07:31:41.220Z,16.85
2023-03-26T07:34:07.504Z,17.28
2023-03-26T07:36:34.021Z,17.41
2023-03-26T07:39:00.418Z,17.02
2023-03-26T07:41:26.861Z,16.88
2023-03-26T07:43:53.223Z,16.78
2023-03-26T07:46:19.624Z,17.03
2023-03-26T07:48:45.940Z,17.15
2023-03-26T07:51:12.280Z,16.96
2023-03-26T07:53:38.753Z,17.41
2023-03-26T07:56:05.212Z,17.85
2023-03-26T07:58:31.554Z,18.06
2023-03-26T08:00:57.844Z,17.87
2023-03-26T08:03:24.308Z,17.84
2023-03-26T08:05:50.688Z,18.00
2023-03-26T08:08:16.996Z,18.56
2023-03-26T08:10:43.360Z,18.48
2023-03-26T08:13:09.896Z,18.50
2023-03-26T08:15:36.505Z,18.35
2023-03-26T08:18:02.775Z,18.42
2023-03-26T08:20:29.078Z,18.89
2023-03-26T08:22:55.465Z,18.84
2023-03-26T08:25:22.122Z,18.88
2023-03-26T08:27:48.495Z,18.60
2023-03-26T08:30:14.827Z,18.89
2023-03-26T08:32:41.344Z,18.75
2023-03-26T08:35:07.692Z,19.01
2023-03-26T08:37:34.075Z,19.28
2023-03-26T08:40:00.478Z,19.71
2023-03-26T08:42:27.944Z,19.84
2023-03-26T08:44:54.281Z,19.31
2023-03-26T08:47:21.708Z,19.54
2023-03-26T08:49:48.052Z,19.53
2023-03-26T08:52:14.399Z,19.29
2023-03-26T08:54:40.779Z,19.46
2023-03-26T08:57:07.275Z,19.88
2023-03-26T08:59:33.546Z,19.80
2023-03-26T09:01:59.964Z,19.79
2023-03-26T09:04:26.274Z,19.99
2023-03-26T09:06:52.714Z,20.29
2023-03-26T09:09:19.504Z,20.37
2023-03-26T09:11:45.444Z,19.87
2023-03-26T09:14:11.756Z,20.08
2023-03-26T09:16:40.273Z,20.26
2023-03-26T09:19:06.647Z,19.98
2023-03-26T09:21:32.985Z,19.86
2023-03-26T09:23:59.352Z,20.07
2023-03-26T09:26:26.776Z,20.26
2023-03-26T09:28:53.133Z,20.37
2023-03-26T09:31:19.544Z,20.87
2023-03-26T09:33:45.891Z,21.49
2023-03-26T09:36:12.269Z,20.72
2023-03-26T09:38:38.625Z,20.03
2023-03-26T09:41:07.465Z,20.49
2023-03-26T09:43:35.028Z,20.04
2023-03-26T09:46:01.460Z,20.44
2023-03-26T09:48:30.053Z,21.09
2023-03-26T09:50:58.110Z,20.90
2023-03-26T09:53:24.088Z,20.84
2023-03-26T09:55:52.764Z,21.19
2023-03-26T09:58:21.464Z,21.45
2023-03-26T10:00:47.889Z,21.01
2023-03-26T10:03:15.947Z,21.19
2023-03-26T10:05:42.358Z,21.11
2023-03-26T10:08:08.622Z,20.95
2023-03-26T10:10:34.993Z,21.30
2023-03-26T10:13:11.981Z,22.06
2023-03-26T10:15:27.754Z,22.83
2023-03-26T10:17:54.153Z,23.11
2023-03-26T10:20:20.510Z,22.94
2023-03-26T10:22:47.196Z,23.01
2023-03-26T10:25:13.578Z,22.62
2023-03-26T10:27:39.907Z,22.56
2023-03-26T10:30:06.284Z,22.91
2023-03-26T10:32:32.730Z,22.97
2023-03-26T10:34:59.055Z,22.94
2023-03-26T10:37:25.474Z,22.86
2023-03-26T10:39:51.817Z,22.22
2023-03-26T10:42:22.876Z,22.37
2023-03-26T10:44:50.335Z,21.72
2023-03-26T10:47:16.911Z,21.63
2023-03-26T10:49:43.264Z,22.17
2023-03-26T10:52:09.599Z,22.24
2023-03-26T10:54:36.028Z,22.43
2023-03-26T10:57:02.384Z,22.02
2023-03-26T10:59:28.701Z,22.45
2023-03-26T11:01:55.163Z,22.07
2023-03-26T11:04:21.401Z,21.91
2023-03-26T11:06:48.883Z,22.52
2023-03-26T11:09:15.566Z,22.76
2023-03-26T11:11:41.921Z,21.66
2023-03-26T11:14:09.558Z,21.60
2023-03-26T11:16:35.884Z,22.06
2023-03-26T11:19:03.850Z,22.41
2023-03-26T11:21:28.615Z,22.56
2023-03-26T11:24:05.022Z,22.67
2023-03-26T11:26:21.400Z,21.76
2023-03-26T11:29:03.856Z,21.64
2023-03-26T11:31:14.192Z,21.79
2023-03-26T11:33:45.553Z,21.51
2023-03-26T11:36:07.197Z,21.49
2023-03-26T11:38:33.497Z,21.38
2023-03-26T11:40:59.927Z,21.61
2023-03-26T11:43:27.121Z,21.78
2023-03-26T11:45:53.450Z,21.37
2023-03-26T11:48:19.847Z,21.51
2023-03-26T11:50:46.230Z,21.62
2023-03-26T11:53:12.633Z,21.61
2023-03-26T11:55:38.995Z,21.65
2023-03-26T11:58:05.412Z,21.71
2023-03-26T12:00:34.482Z,21.89
2023-03-26T12:03:00.921Z,21.80
2023-03-26T12:05:27.311Z,21.57
2023-03-26T12:07:53.668Z,21.36
2023-03-26T12:10:22.784Z,21.63
2023-03-26T12:12:49.135Z,21.97
2023-03-26T12:15:15.804Z,21.77
2023-03-26T12:17:43.127Z,21.82
2023-03-26T12:20:09.425Z,22.09
2023-03-26T12:22:35.815Z,21.90
2023-03-26T12:25:02.227Z,21.89
2023-03-26T12:27:34.780Z,22.16
2023-03-26T12:30:11.830Z,21.52
2023-03-26T12:32:45.875Z,21.43
2023-03-26T12:35:05.954Z,20.98
2023-03-26T12:37:33.543Z,20.99
2023-03-26T12:40:07.209Z,21.13
2023-03-26T12:44:51.383Z,21.14
2023-03-26T12:44:59.985Z,21.70
2023-03-26T12:48:00.342Z,21.89
2023-03-26T12:49:49.249Z,22.05
2023-03-26T12:52:24.277Z,21.65
2023-03-26T12:54:50.619Z,21.95
2023-03-26T12:57:17.040Z,21.71
2023-03-26T12:59:43.479Z,20.96
2023-03-26T13:02:10.175Z,20.49
2023-03-26T13:04:36.632Z,20.22
2023-03-26T13:07:05.166Z,20.07
2023-03-26T13:09:31.517Z,19.78
2023-03-26T13:11:57.875Z,19.39
2023-03-26T13:14:24.302Z,19.29
2023-03-26T13:16:51.040Z,19.20
2023-03-26T13:19:17.400Z,19.04
2023-03-26T13:21:45.888Z,18.96
2023-03-26T13:24:10.610Z,18.81
2023-03-26T13:26:37.029Z,18.88
2023-03-26T13:29:03.441Z,18.93
2023-03-26T13:31:29.910Z,19.07
2023-03-26T13:33:56.326Z,19.08
2023-03-26T13:36:24.189Z,18.90
2023-03-26T13:38:59.253Z,18.75
2023-03-26T13:41:15.429Z,18.72
2023-03-26T13:43:41.822Z,18.95
2023-03-26T13:46:08.225Z,18.82
2023-03-26T13:48:34.522Z,18.66
2023-03-26T13:51:00.976Z,18.57
2023-03-26T13:53:27.370Z,18.68
2023-03-26T13:55:53.723Z,18.95
2023-03-26T13:58:20.092Z,19.09
2023-03-26T14:00:46.448Z,18.79
2023-03-26T14:03:12.840Z,18.49
2023-03-26T14:05:39.229Z,18.39
2023-03-26T14:08:05.627Z,18.58
2023-03-26T14:10:31.910Z,18.60
2023-03-26T14:12:58.319Z,18.66
2023-03-26T14:15:24.685Z,18.63
2023-03-26T14:17:51.036Z,18.27
2023-03-26T14:20:17.474Z,18.21
2023-03-26T14:22:43.856Z,18.28
2023-03-26T14:25:10.213Z,18.14
2023-03-26T14:27:36.611Z,18.06
2023-03-26T14:30:03.076Z,18.11
2023-03-26T14:32:29.410Z,18.02
2023-03-26T14:34:55.712Z,18.09
2023-03-26T14:37:27.313Z,18.09
2023-03-26T14:39:48.576Z,18.13
2023-03-26T14:42:14.957Z,18.13
2023-03-26T14:44:48.159Z,18.22
2023-03-26T14:47:07.804Z,18.17
2023-03-26T14:49:34.109Z,18.18
2023-03-26T14:52:00.506Z,18.16
2023-03-26T14:54:26.833Z,18.17
2023-03-26T14:56:53.272Z,18.16
2023-03-26T14:59:19.556Z,18.13
2023-03-26T15:01:45.937Z,18.11
2023-03-26T15:04:12.284Z,18.11
2023-03-26T15:06:38.729Z,18.07
2023-03-26T15:09:05.130Z,18.00
2023-03-26T15:11:32.990Z,17.91
2023-03-26T15:13:57.978Z,17.95
2023-03-26T15:16:26.233Z,17.98
2023-03-26T15:18:50.696Z,17.95
2023-03-26T15:21:17.090Z,17.76
2023-03-26T15:23:43.438Z,17.71
2023-03-26T15:26:09.821Z,17.68
2023-03-26T15:28:36.169Z,17.69
2023-03-26T15:31:02.512Z,17.68
2023-03-26T15:33:28.864Z,17.64
2023-03-26T15:35:57.377Z,17.63
2023-03-26T15:38:21.617Z,17.64
2023-03-26T15:40:48.381Z,17.58
2023-03-26T15:43:14.704Z,17.49
2023-03-26T15:45:41.175Z,17.44
2023-03-26T15:48:10.334Z,17.38
2023-03-26T15:50:33.886Z,17.33
2023-03-26T15:53:00.255Z,17.32
2023-03-26T15:55:26.609Z,17.28
2023-03-26T15:57:53.003Z,17.23
2023-03-26T16:00:19.344Z,17.21
2023-03-26T16:02:45.809Z,17.16
2023-03-26T16:05:12.173Z,17.12
2023-03-26T16:07:38.494Z,17.13
2023-03-26T16:10:07.149Z,17.09
2023-03-26T16:12:33.468Z,17.01
2023-03-26T16:14:59.825Z,16.95
2023-03-26T16:17:26.231Z,16.89
2023-03-26T16:19:52.599Z,16.79
2023-03-26T16:22:18.913Z,16.75
2023-03-26T16:24:45.315Z,16.70
2023-03-26T16:27:11.644Z,16.66
2023-03-26T16:29:38.083Z,16.62
2023-03-26T16:32:04.529Z,16.67
2023-03-26T16:34:31.092Z,16.69
2023-03-26T16:36:57.219Z,16.67
2023-03-26T16:39:23.599Z,16.45
2023-03-26T16:41:49.963Z,16.36
2023-03-26T16:44:16.310Z,16.30
2023-03-26T16:46:42.728Z,16.27
2023-03-26T16:49:09.052Z,16.23
2023-03-26T16:51:35.426Z,16.18
2023-03-26T16:54:01.862Z,16.12
2023-03-26T16:56:28.216Z,16.07
2023-03-26T16:58:54.618Z,16.08
2023-03-26T17:01:21.117Z,15.98
2023-03-26T17:03:47.582Z,15.85
2023-03-26T17:06:13.916Z,15.79
2023-03-26T17:08:40.364Z,15.73
2023-03-26T17:11:06.707Z,15.72
2023-03-26T17:13:33.145Z,15.70
2023-03-26T17:15:59.552Z,15.67
2023-03-26T17:18:25.953Z,15.64
2023-03-26T17:20:52.211Z,15.62
2023-03-26T17:23:18.621Z,15.54
2023-03-26T17:25:45.442Z,15.50
2023-03-26T17:28:11.828Z,15.48
2023-03-26T17:30:38.185Z,15.48
2023-03-26T17:33:04.639Z,15.43
2023-03-26T17:35:30.996Z,15.42
2023-03-26T17:37:57.350Z,15.41
2023-03-26T17:40:23.835Z,15.41
2023-03-26T17:42:50.205Z,15.42
2023-03-26T17:45:16.585Z,15.41
2023-03-26T17:47:43.079Z,15.37
2023-03-26T17:50:09.413Z,15.33
2023-03-26T17:52:35.741Z,15.25
2023-03-26T17:55:02.133Z,15.18
2023-03-26T17:57:28.519Z,15.15
2023-03-26T17:59:54.892Z,15.11
2023-03-26T18:02:21.377Z,15.10
2023-03-26T18:04:47.691Z,15.05
2023-03-26T18:07:14.133Z,15.03
2023-03-26T18:09:40.499Z,15.02
2023-03-26T18:12:06.889Z,14.98
2023-03-26T18:14:33.320Z,14.97
2023-03-26T18:17:00.746Z,14.97
2023-03-26T18:19:27.072Z,14.89
2023-03-26T18:21:53.424Z,14.74
2023-03-26T18:24:19.744Z,14.70
2023-03-26T18:26:46.256Z,14.61
2023-03-26T18:29:12.611Z,14.57
2023-03-26T18:31:39.004Z,14.58
2023-03-26T18:34:05.410Z,14.54
2023-03-26T18:36:31.768Z,14.53
2023-03-26T18:38:58.087Z,14.37
2023-03-26T18:41:24.641Z,14.09
2023-03-26T18:43:52.115Z,14.00
2023-03-26T18:46:18.644Z,14.00
2023-03-26T18:48:44.947Z,13.97
2023-03-26T18:51:11.340Z,13.99
2023-03-26T18:53:37.750Z,13.98
2023-03-26T18:56:04.206Z,13.95
2023-03-26T18:58:30.606Z,13.91
2023-03-26T19:00:57.194Z,13.91
2023-03-26T19:03:23.462Z,13.89
2023-03-26T19:05:49.750Z,13.90
2023-03-26T19:08:16.082Z,13.86
2023-03-26T19:10:42.486Z,13.74
2023-03-26T19:13:08.903Z,13.69
2023-03-26T19:15:35.351Z,13.67
2023-03-26T19:18:01.778Z,13.63
2023-03-26T19:20:28.222Z,13.58
2023-03-26T19:22:54.634Z,13.59
2023-03-26T19:25:21.024Z,13.60
2023-03-26T19:27:47.632Z,13.62
2023-03-26T19:30:13.977Z,13.63
2023-03-26T19:32:40.381Z,13.56
2023-03-26T19:35:06.737Z,13.53
2023-03-26T19:37:33.193Z,13.54
2023-03-26T19:40:01.084Z,13.52
2023-03-26T19:42:27.431Z,13.46
2023-03-26T19:44:53.789Z,13.44
2023-03-26T19:47:20.219Z,13.35
2023-03-26T19:49:46.584Z,13.31
2023-03-26T19:52:12.962Z,13.18
2023-03-26T19:54:39.322Z,13.03
2023-03-26T19:57:05.786Z,12.86
2023-03-26T19:59:32.178Z,12.70
2023-03-26T20:01:58.531Z,12.56
2023-03-26T20:04:24.881Z,12.41
2023-03-26T20:06:51.383Z,12.26
2023-03-26T20:09:17.845Z,12.04
2023-03-26T20:11:44.189Z,11.81
2023-03-26T20:14:10.712Z,11.61
2023-03-26T20:16:37.155Z,11.54
2023-03-26T20:19:03.411Z,11.49
2023-03-26T20:21:29.840Z,11.46
2023-03-26T20:23:56.262Z,11.36
2023-03-26T20:26:22.646Z,11.25
2023-03-26T20:28:53.226Z,11.18
2023-03-26T20:31:15.351Z,11.11
2023-03-26T20:33:41.731Z,11.08
2023-03-26T20:36:08.263Z,11.09
2023-03-26T20:38:39.525Z,11.10
2023-03-26T20:41:00.993Z,11.15
2023-03-26T20:43:27.352Z,11.25
2023-03-26T20:45:53.889Z,11.33
2023-03-26T20:48:20.011Z,11.39
2023-03-26T20:51:01.768Z,11.46
2023-03-26T20:53:12.758Z,11.50
2023-03-26T20:55:39.081Z,11.54
2023-03-26T20:58:05.483Z,11.52
2023-03-26T21:00:31.917Z,11.51
2023-03-26T21:02:58.224Z,11.49
2023-03-26T21:05:24.545Z,11.52
2023-03-26T21:07:50.853Z,11.52
2023-03-26T21:10:17.230Z,11.53
2023-03-26T21:12:43.737Z,11.50
2023-03-26T21:15:17.070Z,11.48
2023-03-26T21:17:36.478Z,11.44
2023-03-26T21:20:02.841Z,11.42
2023-03-26T21:22:29.180Z,11.32
2023-03-26T21:24:55.606Z,11.14
2023-03-26T21:27:21.980Z,10.99
2023-03-26T21:29:48.284Z,10.92
2023-03-26T21:32:14.693Z,10.86
2023-03-26T21:34:47.819Z,10.80
2023-03-26T21:37:07.436Z,10.69
2023-03-26T21:39:33.808Z,10.52
2023-03-26T21:42:04.731Z,10.43
2023-03-26T21:44:26.564Z,10.39
2023-03-26T21:46:52.909Z,10.28
2023-03-26T21:49:19.242Z,10.20
2023-03-26T21:51:45.594Z,10.02
2023-03-26T21:54:11.945Z,9.88
2023-03-26T21:56:38.373Z,9.75
2023-03-26T21:59:04.665Z,9.71
2023-03-26T22:01:31.326Z,9.66
2023-03-26T22:03:57.671Z,9.53
2023-03-26T22:06:26.435Z,9.49
2023-03-26T22:08:52.806Z,9.49
2023-03-26T22:11:19.183Z,9.53
2023-03-26T22:13:45.505Z,9.60
2023-03-26T22:16:11.950Z,9.65
2023-03-26T22:18:38.286Z,9.71
2023-03-26T22:21:04.735Z,9.69
2023-03-26T22:23:31.067Z,9.66
2023-03-26T22:25:57.425Z,9.56
2023-03-26T22:28:23.759Z,9.64
2023-03-26T22:30:50.138Z,9.70
2023-03-26T22:33:16.500Z,9.73
2023-03-26T22:35:42.954Z,9.75
2023-03-26T22:38:09.213Z,9.77
2023-03-26T22:40:35.538Z,9.78
2023-03-26T22:43:01.880Z,9.71
2023-03-26T22:45:28.204Z,9.67
2023-03-26T22:48:03.062Z,9.68
2023-03-26T22:50:20.993Z,9.68
2023-03-26T22:52:47.332Z,9.74
2023-03-26T22:55:13.649Z,9.72
2023-03-26T22:57:40.020Z,9.73
2023-03-26T23:00:06.343Z,9.70
2023-03-26T23:02:32.754Z,9.63
2023-03-26T23:04:59.052Z,9.54
2023-03-26T23:07:25.606Z,9.54
2023-03-26T23:09:52.057Z,9.53
2023-03-26T23:12:18.415Z,9.50
2023-03-26T23:14:44.754Z,9.60
2023-03-26T23:17:11.236Z,9.77
2023-03-26T23:19:37.592Z,9.91
2023-03-26T23:22:04.024Z,9.89
2023-03-26T23:24:30.468Z,9.79
2023-03-26T23:26:56.852Z,9.74
2023-03-26T23:29:23.284Z,9.75
2023-03-26T23:31:49.894Z,9.84
2023-03-26T23:34:16.222Z,9.93
2023-03-26T23:36:42.561Z,9.96
2023-03-26T23:39:08.950Z,10.06
2023-03-26T23:41:35.323Z,10.09
2023-03-26T23:44:01.673Z,10.04
2023-03-26T23:46:28.183Z,10.02
2023-03-26T23:48:54.510Z,9.97
2023-03-26T23:51:20.854Z,9.85
2023-03-26T23:53:47.411Z,9.84
2023-03-26T23:56:13.720Z,9.85
2023-03-26T23:58:40.065Z,9.80
